sensor_id;sensor_type;location;lat;lon;timestamp;pressure;altitude;pressure_sealevel;temperature;humidity
79703;BME280;69172;52.352;5.006;2023-07-28T00:02:10;100427.84;;;18.09;99.04
79703;BME280;69172;52.352;5.006;2023-07-28T00:04:37;100424.44;;;18.13;99.03
79703;BME280;69172;52.352;5.006;2023-07-28T00:07:05;100426.13;;;18.13;98.79
79703;BME280;69172;52.352;5.006;2023-07-28T00:09:36;100416.47;;;18.06;99.22
79703;BME280;69172;52.352;5.006;2023-07-28T00:12:04;100412.97;;;18.04;100.00
79703;BME280;69172;52.352;5.006;2023-07-28T00:14:38;100407.84;;;18.07;99.33
79703;BME280;69172;52.352;5.006;2023-07-28T00:17:03;100412.97;;;18.04;99.89
79703;BME280;69172;52.352;5.006;2023-07-28T00:19:28;100415.53;;;18.02;100.00
79703;BME280;69172;52.352;5.006;2023-07-28T00:21:54;100414.75;;;18.06;99.71
79703;BME280;69172;52.352;5.006;2023-07-28T00:24:21;100414.78;;;18.08;99.39
79703;BME280;69172;52.352;5.006;2023-07-28T00:26:46;100407.84;;;18.07;99.62
79703;BME280;69172;52.352;5.006;2023-07-28T00:29:12;100410.50;;;18.11;99.14
79703;BME280;69172;52.352;5.006;2023-07-28T00:31:37;100404.44;;;18.11;99.65
79703;BME280;69172;52.352;5.006;2023-07-28T00:34:03;100410.56;;;18.14;99.42
79703;BME280;69172;52.352;5.006;2023-07-28T00:36:29;100410.56;;;18.14;99.48
79703;BME280;69172;52.352;5.006;2023-07-28T00:38:54;100416.66;;;18.15;99.09
79703;BME280;69172;52.352;5.006;2023-07-28T00:41:20;100409.69;;;18.12;99.73
79703;BME280;69172;52.352;5.006;2023-07-28T00:43:45;100419.22;;;18.13;99.50
79703;BME280;69172;52.352;5.006;2023-07-28T00:46:12;100419.97;;;18.08;99.63
79703;BME280;69172;52.352;5.006;2023-07-28T00:48:38;100416.63;;;18.13;99.89
79703;BME280;69172;52.352;5.006;2023-07-28T00:51:05;100429.75;;;18.18;99.77
79703;BME280;69172;52.352;5.006;2023-07-28T00:53:31;100423.59;;;18.14;99.61
79703;BME280;69172;52.352;5.006;2023-07-28T00:55:56;100411.34;;;18.09;99.85
79703;BME280;69172;52.352;5.006;2023-07-28T00:58:22;100421.81;;;18.12;99.95
79703;BME280;69172;52.352;5.006;2023-07-28T01:00:48;100417.50;;;18.14;99.88
79703;BME280;69172;52.352;5.006;2023-07-28T01:03:14;100415.72;;;18.13;100.00
79703;BME280;69172;52.352;5.006;2023-07-28T01:08:34;100410.50;;;18.10;99.81
79703;BME280;69172;52.352;5.006;2023-07-28T01:11:00;100413.25;;;18.17;99.90
79703;BME280;69172;52.352;5.006;2023-07-28T01:13:25;100419.34;;;18.19;99.97
79703;BME280;69172;52.352;5.006;2023-07-28T01:15:50;100421.94;;;18.19;100.00
79703;BME280;69172;52.352;5.006;2023-07-28T01:18:17;100433.19;;;18.18;100.00
79703;BME280;69172;52.352;5.006;2023-07-28T01:20:43;100426.19;;;18.16;100.00
79703;BME280;69172;52.352;5.006;2023-07-28T01:23:20;100423.59;;;18.16;100.00
79703;BME280;69172;52.352;5.006;2023-07-28T01:28:20;100434.97;;;18.21;100.00
79703;BME280;69172;52.352;5.006;2023-07-28T01:30:45;100447.97;;;18.21;100.00
79703;BME280;69172;52.352;5.006;2023-07-28T01:33:11;100444.53;;;18.20;99.79
79703;BME280;69172;52.352;5.006;2023-07-28T01:35:37;100447.13;;;18.20;100.00
79703;BME280;69172;52.352;5.006;2023-07-28T01:38:03;100440.16;;;18.19;99.83
79703;BME280;69172;52.352;5.006;2023-07-28T01:40:29;100436.88;;;18.29;99.28
79703;BME280;69172;52.352;5.006;2023-07-28T01:42:55;100436.75;;;18.22;100.00
79703;BME280;69172;52.352;5.006;2023-07-28T01:45:20;100433.28;;;18.23;100.00
79703;BME280;69172;52.352;5.006;2023-07-28T01:47:46;100435.91;;;18.24;99.93
79703;BME280;69172;52.352;5.006;2023-07-28T01:50:12;100432.44;;;18.24;100.00
79703;BME280;69172;52.352;5.006;2023-07-28T01:52:38;100438.44;;;18.21;100.00
79703;BME280;69172;52.352;5.006;2023-07-28T01:55:03;100444.47;;;18.19;100.00
79703;BME280;69172;52.352;5.006;2023-07-28T01:57:33;100443.66;;;18.20;100.00
79703;BME280;69172;52.352;5.006;2023-07-28T01:59:58;100442.75;;;18.19;100.00
79703;BME280;69172;52.352;5.006;2023-07-28T02:02:24;100447.97;;;18.18;100.00
79703;BME280;69172;52.352;5.006;2023-07-28T02:04:49;100447.97;;;18.19;100.00
79703;BME280;69172;52.352;5.006;2023-07-28T02:07:14;100434.06;;;18.19;100.00
79703;BME280;69172;52.352;5.006;2023-07-28T02:09:40;100436.69;;;18.19;100.00
79703;BME280;69172;52.352;5.006;2023-07-28T02:12:06;100433.25;;;18.21;100.00
79703;BME280;69172;52.352;5.006;2023-07-28T02:14:31;100431.59;;;18.25;100.00
79703;BME280;69172;52.352;5.006;2023-07-28T02:16:57;100422.88;;;18.23;100.00
79703;BME280;69172;52.352;5.006;2023-07-28T02:19:24;100427.16;;;18.19;100.00
79703;BME280;69172;52.352;5.006;2023-07-28T02:21:50;100428.88;;;18.19;100.00
79703;BME280;69172;52.352;5.006;2023-07-28T02:24:15;100427.22;;;18.22;100.00
79703;BME280;69172;52.352;5.006;2023-07-28T02:26:40;100435.03;;;18.24;100.00
79703;BME280;69172;52.352;5.006;2023-07-28T02:29:06;100437.69;;;18.25;100.00
79703;BME280;69172;52.352;5.006;2023-07-28T02:31:31;100439.47;;;18.29;100.00
79703;BME280;69172;52.352;5.006;2023-07-28T02:33:57;100443.78;;;18.26;100.00
79703;BME280;69172;52.352;5.006;2023-07-28T02:36:22;100443.78;;;18.27;100.00
79703;BME280;69172;52.352;5.006;2023-07-28T02:38:48;100440.41;;;18.31;100.00
79703;BME280;69172;52.352;5.006;2023-07-28T02:41:13;100435.16;;;18.30;100.00
79703;BME280;69172;52.352;5.006;2023-07-28T02:43:38;100446.44;;;18.30;100.00
79703;BME280;69172;52.352;5.006;2023-07-28T02:46:04;100442.13;;;18.31;100.00
79703;BME280;69172;52.352;5.006;2023-07-28T02:48:30;100435.16;;;18.30;100.00
79703;BME280;69172;52.352;5.006;2023-07-28T02:50:55;100443.84;;;18.32;100.00
79703;BME280;69172;52.352;5.006;2023-07-28T02:53:21;100438.63;;;18.29;100.00
79703;BME280;69172;52.352;5.006;2023-07-28T02:55:47;100436.03;;;18.32;100.00
79703;BME280;69172;52.352;5.006;2023-07-28T02:58:13;100451.66;;;18.32;100.00
79703;BME280;69172;52.352;5.006;2023-07-28T03:00:40;100444.72;;;18.31;100.00
79703;BME280;69172;52.352;5.006;2023-07-28T03:03:08;100444.72;;;18.31;100.00
79703;BME280;69172;52.352;5.006;2023-07-28T03:05:36;100446.50;;;18.33;100.00
79703;BME280;69172;52.352;5.006;2023-07-28T03:08:02;100450.81;;;18.31;100.00
79703;BME280;69172;52.352;5.006;2023-07-28T03:10:27;100454.25;;;18.29;100.00
79703;BME280;69172;52.352;5.006;2023-07-28T03:12:55;100449.00;;;18.27;100.00
79703;BME280;69172;52.352;5.006;2023-07-28T03:15:21;100449.94;;;18.32;100.00
79703;BME280;69172;52.352;5.006;2023-07-28T03:17:49;100456.88;;;18.32;100.00
79703;BME280;69172;52.352;5.006;2023-07-28T03:20:23;100450.78;;;18.30;100.00
79703;BME280;69172;52.352;5.006;2023-07-28T03:22:56;100450.75;;;18.28;100.00
79703;BME280;69172;52.352;5.006;2023-07-28T03:25:22;100453.38;;;18.30;100.00
79703;BME280;69172;52.352;5.006;2023-07-28T03:27:48;100462.94;;;18.31;100.00
79703;BME280;69172;52.352;5.006;2023-07-28T03:30:14;100455.13;;;18.31;100.00
79703;BME280;69172;52.352;5.006;2023-07-28T03:32:39;100455.97;;;18.30;100.00
79703;BME280;69172;52.352;5.006;2023-07-28T03:35:05;100460.31;;;18.29;100.00
79703;BME280;69172;52.352;5.006;2023-07-28T03:37:36;100458.56;;;18.28;100.00
79703;BME280;69172;52.352;5.006;2023-07-28T03:40:01;100466.44;;;18.33;100.00
79703;BME280;69172;52.352;5.006;2023-07-28T03:42:27;100463.84;;;18.31;100.00
79703;BME280;69172;52.352;5.006;2023-07-28T03:44:52;100472.53;;;18.33;100.00
79703;BME280;69172;52.352;5.006;2023-07-28T03:47:19;100473.38;;;18.32;100.00
79703;BME280;69172;52.352;5.006;2023-07-28T03:49:44;100481.19;;;18.32;100.00
79703;BME280;69172;52.352;5.006;2023-07-28T03:52:09;100488.19;;;18.35;100.00
79703;BME280;69172;52.352;5.006;2023-07-28T03:54:35;100484.69;;;18.33;100.00
79703;BME280;69172;52.352;5.006;2023-07-28T03:57:00;100479.47;;;18.34;100.00
79703;BME280;69172;52.352;5.006;2023-07-28T03:59:25;100483.91;;;18.38;100.00
79703;BME280;69172;52.352;5.006;2023-07-28T04:01:51;100482.09;;;18.34;100.00
79703;BME280;69172;52.352;5.006;2023-07-28T04:04:17;100484.69;;;18.33;100.00
79703;BME280;69172;52.352;5.006;2023-07-28T04:06:45;100482.09;;;18.34;100.00
79703;BME280;69172;52.352;5.006;2023-07-28T04:09:12;100481.19;;;18.32;100.00
79703;BME280;69172;52.352;5.006;2023-07-28T04:11:37;100481.22;;;18.34;100.00
79703;BME280;69172;52.352;5.006;2023-07-28T04:14:04;100482.91;;;18.32;100.00
79703;BME280;69172;52.352;5.006;2023-07-28T04:16:30;100483.78;;;18.31;100.00
79703;BME280;69172;52.352;5.006;2023-07-28T04:18:56;100482.97;;;18.35;100.00
79703;BME280;69172;52.352;5.006;2023-07-28T04:21:23;100489.19;;;18.41;100.00
79703;BME280;69172;52.352;5.006;2023-07-28T04:23:48;100483.09;;;18.41;100.00
79703;BME280;69172;52.352;5.006;2023-07-28T04:26:14;100491.78;;;18.41;100.00
79703;BME280;69172;52.352;5.006;2023-07-28T04:28:39;100489.34;;;18.49;100.00
79703;BME280;69172;52.352;5.006;2023-07-28T04:31:05;100489.34;;;18.49;100.00
79703;BME280;69172;52.352;5.006;2023-07-28T04:33:31;100484.91;;;18.45;100.00
79703;BME280;69172;52.352;5.006;2023-07-28T04:35:56;100487.53;;;18.45;100.00
79703;BME280;69172;52.352;5.006;2023-07-28T04:38:22;100485.75;;;18.45;100.00
79703;BME280;69172;52.352;5.006;2023-07-28T04:40:47;100501.47;;;18.49;100.00
79703;BME280;69172;52.352;5.006;2023-07-28T04:43:12;100491.84;;;18.46;100.00
79703;BME280;69172;52.352;5.006;2023-07-28T04:45:38;100490.06;;;18.43;100.00
79703;BME280;69172;52.352;5.006;2023-07-28T04:48:05;100495.34;;;18.47;100.00
79703;BME280;69172;52.352;5.006;2023-07-28T04:50:30;100489.25;;;18.46;100.00
79703;BME280;69172;52.352;5.006;2023-07-28T04:52:58;100489.25;;;18.46;100.00
79703;BME280;69172;52.352;5.006;2023-07-28T04:55:23;100490.97;;;18.44;100.00
79703;BME280;69172;52.352;5.006;2023-07-28T04:57:49;100497.22;;;18.51;100.00
79703;BME280;69172;52.352;5.006;2023-07-28T05:00:15;100489.25;;;18.46;100.00
79703;BME280;69172;52.352;5.006;2023-07-28T05:02:45;100496.22;;;18.47;100.00
79703;BME280;69172;52.352;5.006;2023-07-28T05:05:11;100492.84;;;18.51;100.00
79703;BME280;69172;52.352;5.006;2023-07-28T05:07:38;100489.41;;;18.51;100.00
79703;BME280;69172;52.352;5.006;2023-07-28T05:10:04;100505.03;;;18.54;100.00
79703;BME280;69172;52.352;5.006;2023-07-28T05:12:29;100504.19;;;18.53;100.00
79703;BME280;69172;52.352;5.006;2023-07-28T05:14:56;100494.72;;;18.58;100.00
79703;BME280;69172;52.352;5.006;2023-07-28T05:17:21;100499.13;;;18.62;100.00
79703;BME280;69172;52.352;5.006;2023-07-28T05:19:47;100507.03;;;18.67;99.91
79703;BME280;69172;52.352;5.006;2023-07-28T05:22:12;100507.03;;;18.67;99.66
79703;BME280;69172;52.352;5.006;2023-07-28T05:24:38;100511.44;;;18.69;99.56
79703;BME280;69172;52.352;5.006;2023-07-28T05:27:04;100515.00;;;18.76;98.90
79703;BME280;69172;52.352;5.006;2023-07-28T05:29:30;100500.25;;;18.75;98.90
79703;BME280;69172;52.352;5.006;2023-07-28T05:32:00;100516.66;;;18.71;99.09
79703;BME280;69172;52.352;5.006;2023-07-28T05:34:26;100517.50;;;18.70;99.67
79703;BME280;69172;52.352;5.006;2023-07-28T05:36:53;100513.09;;;18.64;100.00
79703;BME280;69172;52.352;5.006;2023-07-28T05:39:21;100522.63;;;18.64;99.47
79703;BME280;69172;52.352;5.006;2023-07-28T05:41:46;100526.19;;;18.69;99.47
79703;BME280;69172;52.352;5.006;2023-07-28T05:44:11;100512.25;;;18.67;99.11
79703;BME280;69172;52.352;5.006;2023-07-28T05:46:37;100520.03;;;18.65;99.36
79703;BME280;69172;52.352;5.006;2023-07-28T05:49:02;100520.06;;;18.67;99.51
79703;BME280;69172;52.352;5.006;2023-07-28T05:51:28;100519.25;;;18.71;98.83
79703;BME280;69172;52.352;5.006;2023-07-28T05:53:54;100520.13;;;18.71;99.19
79703;BME280;69172;52.352;5.006;2023-07-28T05:56:20;100528.06;;;18.77;98.73
79703;BME280;69172;52.352;5.006;2023-07-28T05:58:49;100529.03;;;18.82;98.70
79703;BME280;69172;52.352;5.006;2023-07-28T06:01:14;100530.63;;;18.74;98.90
79703;BME280;69172;52.352;5.006;2023-07-28T06:03:40;100537.53;;;18.72;98.83
79703;BME280;69172;52.352;5.006;2023-07-28T06:06:05;100542.75;;;18.74;99.00
79703;BME280;69172;52.352;5.006;2023-07-28T06:08:31;100540.34;;;18.84;98.26
79703;BME280;69172;52.352;5.006;2023-07-28T06:10:56;100537.88;;;18.92;97.65
79703;BME280;69172;52.352;5.006;2023-07-28T06:13:21;100542.22;;;18.91;97.62
79703;BME280;69172;52.352;5.006;2023-07-28T06:15:48;100534.53;;;19.00;97.61
79703;BME280;69172;52.352;5.006;2023-07-28T06:18:13;100537.91;;;18.95;97.49
79703;BME280;69172;52.352;5.006;2023-07-28T06:20:44;100544.19;;;19.05;97.09
79703;BME280;69172;52.352;5.006;2023-07-28T06:23:11;100544.13;;;19.03;96.31
79703;BME280;69172;52.352;5.006;2023-07-28T06:25:36;100546.84;;;19.08;96.17
79703;BME280;69172;52.352;5.006;2023-07-28T06:28:07;100551.19;;;19.09;96.37
79703;BME280;69172;52.352;5.006;2023-07-28T06:30:33;100550.13;;;18.97;96.96
79703;BME280;69172;52.352;5.006;2023-07-28T06:32:58;100555.34;;;18.97;97.33
79703;BME280;69172;52.352;5.006;2023-07-28T06:35:23;100563.31;;;19.05;96.80
79703;BME280;69172;52.352;5.006;2023-07-28T06:37:49;100565.09;;;19.08;96.21
79703;BME280;69172;52.352;5.006;2023-07-28T06:40:14;100563.09;;;18.93;97.12
79703;BME280;69172;52.352;5.006;2023-07-28T06:42:40;100567.47;;;18.94;97.30
79703;BME280;69172;52.352;5.006;2023-07-28T06:45:07;100573.50;;;18.93;97.73
79703;BME280;69172;52.352;5.006;2023-07-28T06:47:33;100571.75;;;18.92;97.59
79703;BME280;69172;52.352;5.006;2023-07-28T06:49:59;100580.44;;;18.91;97.98
79703;BME280;69172;52.352;5.006;2023-07-28T06:52:28;100578.53;;;18.84;97.97
79703;BME280;69172;52.352;5.006;2023-07-28T06:54:53;100582.09;;;18.86;98.84
79703;BME280;69172;52.352;5.006;2023-07-28T06:57:20;100582.78;;;18.77;99.11
79703;BME280;69172;52.352;5.006;2023-07-28T06:59:45;100582.84;;;18.80;99.30
79703;BME280;69172;52.352;5.006;2023-07-28T07:02:11;100588.88;;;18.78;99.98
79703;BME280;69172;52.352;5.006;2023-07-28T07:04:36;100590.53;;;18.74;99.85
79703;BME280;69172;52.352;5.006;2023-07-28T07:07:03;100594.84;;;18.72;99.74
79703;BME280;69172;52.352;5.006;2023-07-28T07:09:28;100597.53;;;18.77;99.18
79703;BME280;69172;52.352;5.006;2023-07-28T07:11:54;100599.44;;;18.87;99.22
79703;BME280;69172;52.352;5.006;2023-07-28T07:14:20;100602.16;;;18.91;98.74
79703;BME280;69172;52.352;5.006;2023-07-28T07:16:45;100610.00;;;18.93;98.71
79703;BME280;69172;52.352;5.006;2023-07-28T07:19:11;100613.34;;;18.86;98.81
79703;BME280;69172;52.352;5.006;2023-07-28T07:21:36;100607.38;;;18.93;97.65
79703;BME280;69172;52.352;5.006;2023-07-28T07:24:03;100605.72;;;18.96;97.60
79703;BME280;69172;52.352;5.006;2023-07-28T07:26:29;100611.66;;;18.89;97.54
79703;BME280;69172;52.352;5.006;2023-07-28T07:28:56;100606.44;;;18.89;97.98
79703;BME280;69172;52.352;5.006;2023-07-28T07:31:21;100594.41;;;18.96;97.15
79703;BME280;69172;52.352;5.006;2023-07-28T07:33:47;100610.16;;;19.02;96.85
79703;BME280;69172;52.352;5.006;2023-07-28T07:36:13;100616.47;;;19.16;95.01
79703;BME280;69172;52.352;5.006;2023-07-28T07:38:39;100617.34;;;19.15;93.87
79703;BME280;69172;52.352;5.006;2023-07-28T07:41:06;100615.59;;;19.14;93.91
79703;BME280;69172;52.352;5.006;2023-07-28T07:43:32;100621.88;;;19.25;93.76
79703;BME280;69172;52.352;5.006;2023-07-28T07:45:58;100626.31;;;19.31;93.31
79703;BME280;69172;52.352;5.006;2023-07-28T07:48:25;100618.69;;;19.40;92.61
79703;BME280;69172;52.352;5.006;2023-07-28T07:50:51;100631.63;;;19.37;93.11
79703;BME280;69172;52.352;5.006;2023-07-28T07:53:17;100631.78;;;19.43;92.89
79703;BME280;69172;52.352;5.006;2023-07-28T07:55:42;100636.16;;;19.45;92.23
79703;BME280;69172;52.352;5.006;2023-07-28T07:58:09;100638.81;;;19.48;92.10
79703;BME280;69172;52.352;5.006;2023-07-28T08:00:37;100636.28;;;19.54;92.32
79703;BME280;69172;52.352;5.006;2023-07-28T08:03:03;100644.03;;;19.48;91.62
79703;BME280;69172;52.352;5.006;2023-07-28T08:05:31;100650.81;;;19.39;92.85
79703;BME280;69172;52.352;5.006;2023-07-28T08:07:56;100650.72;;;19.34;92.68
79703;BME280;69172;52.352;5.006;2023-07-28T08:10:22;100654.22;;;19.36;92.93
79703;BME280;69172;52.352;5.006;2023-07-28T08:12:48;100643.94;;;19.44;92.19
79703;BME280;69172;52.352;5.006;2023-07-28T08:15:14;100650.06;;;19.46;91.51
79703;BME280;69172;52.352;5.006;2023-07-28T08:17:39;100642.22;;;19.46;91.76
79703;BME280;69172;52.352;5.006;2023-07-28T08:20:07;100657.09;;;19.48;91.61
79703;BME280;69172;52.352;5.006;2023-07-28T08:22:33;100656.31;;;19.55;91.53
79703;BME280;69172;52.352;5.006;2023-07-28T08:24:59;100648.66;;;19.66;90.76
79703;BME280;69172;52.352;5.006;2023-07-28T08:27:26;100667.16;;;19.80;89.09
79703;BME280;69172;52.352;5.006;2023-07-28T08:29:51;100654.31;;;19.92;88.36
79703;BME280;69172;52.352;5.006;2023-07-28T08:32:16;100658.63;;;19.91;88.37
79703;BME280;69172;52.352;5.006;2023-07-28T08:34:43;100658.69;;;19.96;87.49
79703;BME280;69172;52.352;5.006;2023-07-28T08:37:08;100662.97;;;19.92;87.79
79703;BME280;69172;52.352;5.006;2023-07-28T08:39:35;100667.56;;;20.08;86.35
79703;BME280;69172;52.352;5.006;2023-07-28T08:42:01;100662.44;;;20.14;85.78
79703;BME280;69172;52.352;5.006;2023-07-28T08:44:34;100658.00;;;20.09;86.01
79703;BME280;69172;52.352;5.006;2023-07-28T08:47:03;100671.78;;;19.97;86.82
79703;BME280;69172;52.352;5.006;2023-07-28T08:49:33;100670.06;;;19.99;86.61
79703;BME280;69172;52.352;5.006;2023-07-28T08:52:01;100672.63;;;19.96;87.04
79703;BME280;69172;52.352;5.006;2023-07-28T08:54:27;100680.50;;;19.99;86.75
79703;BME280;69172;52.352;5.006;2023-07-28T08:56:53;100677.91;;;20.01;87.04
79703;BME280;69172;52.352;5.006;2023-07-28T08:59:27;100682.06;;;19.88;87.21
79703;BME280;69172;52.352;5.006;2023-07-28T09:01:54;100679.63;;;19.99;87.20
79703;BME280;69172;52.352;5.006;2023-07-28T09:04:20;100682.28;;;20.03;86.87
79703;BME280;69172;52.352;5.006;2023-07-28T09:06:49;100687.72;;;20.15;85.64
79703;BME280;69172;52.352;5.006;2023-07-28T09:09:16;100692.28;;;20.29;85.87
79703;BME280;69172;52.352;5.006;2023-07-28T09:11:46;100693.13;;;20.28;85.77
79703;BME280;69172;52.352;5.006;2023-07-28T09:14:12;100695.72;;;20.26;85.36
79703;BME280;69172;52.352;5.006;2023-07-28T09:16:38;100698.22;;;20.20;85.42
79703;BME280;69172;52.352;5.006;2023-07-28T09:19:05;100687.06;;;20.30;85.68
79703;BME280;69172;52.352;5.006;2023-07-28T09:21:32;100688.28;;;20.53;84.59
79703;BME280;69172;52.352;5.006;2023-07-28T09:24:03;100695.44;;;20.68;83.30
79703;BME280;69172;52.352;5.006;2023-07-28T09:31:37;100685.03;;;21.52;77.91
79703;BME280;69172;52.352;5.006;2023-07-28T09:34:08;100681.72;;;21.71;77.28
79703;BME280;69172;52.352;5.006;2023-07-28T09:36:35;100685.22;;;21.75;77.06
79703;BME280;69172;52.352;5.006;2023-07-28T09:39:02;100697.47;;;21.79;76.49
79703;BME280;69172;52.352;5.006;2023-07-28T09:41:29;100704.50;;;21.86;75.31
79703;BME280;69172;52.352;5.006;2023-07-28T09:43:55;100702.63;;;21.68;76.04
79703;BME280;69172;52.352;5.006;2023-07-28T09:46:22;100694.78;;;21.70;76.44
79703;BME280;69172;52.352;5.006;2023-07-28T09:48:52;100697.38;;;21.67;75.43
79703;BME280;69172;52.352;5.006;2023-07-28T09:51:22;100698.25;;;21.69;75.41
79703;BME280;69172;52.352;5.006;2023-07-28T09:53:56;100699.25;;;21.86;74.87
79703;BME280;69172;52.352;5.006;2023-07-28T09:56:28;100705.53;;;21.99;74.59
79703;BME280;69172;52.352;5.006;2023-07-28T09:58:58;100703.81;;;22.05;74.56
79703;BME280;69172;52.352;5.006;2023-07-28T10:01:24;100702.78;;;21.85;75.09
79703;BME280;69172;52.352;5.006;2023-07-28T10:03:50;100708.16;;;22.03;74.71
79703;BME280;69172;52.352;5.006;2023-07-28T10:06:17;100692.56;;;22.20;73.63
79703;BME280;69172;52.352;5.006;2023-07-28T10:08:45;100711.72;;;22.11;72.74
79703;BME280;69172;52.352;5.006;2023-07-28T10:11:15;100704.81;;;22.24;72.53
79703;BME280;69172;52.352;5.006;2023-07-28T10:13:43;100693.44;;;22.17;71.86
79703;BME280;69172;52.352;5.006;2023-07-28T10:16:09;100696.97;;;22.27;71.61
79703;BME280;69172;52.352;5.006;2023-07-28T10:18:36;100705.56;;;22.03;71.87
79703;BME280;69172;52.352;5.006;2023-07-28T10:21:15;100703.84;;;22.10;71.43
79703;BME280;69172;52.352;5.006;2023-07-28T10:23:41;100705.50;;;21.97;71.96
79703;BME280;69172;52.352;5.006;2023-07-28T10:26:07;100700.81;;;21.60;74.30
79703;BME280;69172;52.352;5.006;2023-07-28T10:28:37;100709.59;;;21.69;74.81
79703;BME280;69172;52.352;5.006;2023-07-28T10:31:10;100708.91;;;21.87;73.85
79703;BME280;69172;52.352;5.006;2023-07-28T10:33:38;100707.03;;;21.77;74.09
79703;BME280;69172;52.352;5.006;2023-07-28T10:41:29;100705.81;;;22.45;70.96
79703;BME280;69172;52.352;5.006;2023-07-28T10:43:56;100713.69;;;22.48;70.70
79703;BME280;69172;52.352;5.006;2023-07-28T10:46:22;100716.31;;;22.47;69.56
79703;BME280;69172;52.352;5.006;2023-07-28T10:48:49;100723.16;;;22.22;70.65
79703;BME280;69172;52.352;5.006;2023-07-28T10:51:26;100725.66;;;22.09;72.25
79703;BME280;69172;52.352;5.006;2023-07-28T10:53:57;100717.94;;;22.31;71.29
79703;BME280;69172;52.352;5.006;2023-07-28T10:56:23;100722.44;;;22.47;70.61
79703;BME280;69172;52.352;5.006;2023-07-28T10:59:03;100719.88;;;22.60;70.68
79703;BME280;69172;52.352;5.006;2023-07-28T11:01:36;100723.47;;;22.77;69.17
79703;BME280;69172;52.352;5.006;2023-07-28T11:04:16;100728.53;;;22.46;70.32
79703;BME280;69172;52.352;5.006;2023-07-28T11:06:47;100729.19;;;22.12;71.46
79703;BME280;69172;52.352;5.006;2023-07-28T11:09:14;100723.19;;;22.28;70.85
79703;BME280;69172;52.352;5.006;2023-07-28T11:11:41;100727.53;;;22.29;71.76
79703;BME280;69172;52.352;5.006;2023-07-28T11:14:08;100730.94;;;22.13;71.44
79703;BME280;69172;52.352;5.006;2023-07-28T11:16:39;100736.19;;;22.13;71.46
79703;BME280;69172;52.352;5.006;2023-07-28T11:19:11;100726.72;;;22.35;70.94
79703;BME280;69172;52.352;5.006;2023-07-28T11:21:41;100726.09;;;22.78;69.39
79703;BME280;69172;52.352;5.006;2023-07-28T11:24:07;100732.38;;;23.15;67.83
79703;BME280;69172;52.352;5.006;2023-07-28T11:26:37;100727.00;;;22.86;68.06
79703;BME280;69172;52.352;5.006;2023-07-28T11:29:04;100733.78;;;22.51;69.73
79703;BME280;69172;52.352;5.006;2023-07-28T11:31:29;100731.41;;;22.95;68.14
79703;BME280;69172;52.352;5.006;2023-07-28T11:33:55;100733.22;;;23.19;67.06
79703;BME280;69172;52.352;5.006;2023-07-28T11:36:25;100740.03;;;22.68;68.32
79703;BME280;69172;52.352;5.006;2023-07-28T11:38:52;100739.25;;;22.89;68.44
79703;BME280;69172;52.352;5.006;2023-07-28T11:41:20;100741.63;;;22.45;69.36
79703;BME280;69172;52.352;5.006;2023-07-28T11:43:49;100749.47;;;22.43;70.22
79703;BME280;69172;52.352;5.006;2023-07-28T11:49:19;100745.44;;;22.98;67.69
79703;BME280;69172;52.352;5.006;2023-07-28T11:51:52;100752.47;;;23.07;67.28
79703;BME280;69172;52.352;5.006;2023-07-28T11:54:21;100750.69;;;23.10;66.44
79703;BME280;69172;52.352;5.006;2023-07-28T11:56:48;100748.00;;;22.85;67.13
79703;BME280;69172;52.352;5.006;2023-07-28T11:59:15;100760.28;;;22.96;67.78
79703;BME280;69172;52.352;5.006;2023-07-28T12:01:57;100750.75;;;23.23;66.73
79703;BME280;69172;52.352;5.006;2023-07-28T12:07:13;100754.13;;;22.90;67.14
79703;BME280;69172;52.352;5.006;2023-07-28T12:12:18;100752.47;;;23.19;65.35
79703;BME280;69172;52.352;5.006;2023-07-28T12:14:43;100753.50;;;23.53;63.62
79703;BME280;69172;52.352;5.006;2023-07-28T12:17:15;100750.00;;;23.55;63.49
79703;BME280;69172;52.352;5.006;2023-07-28T12:19:42;100750.84;;;23.44;63.76
79703;BME280;69172;52.352;5.006;2023-07-28T12:22:19;100754.28;;;23.37;64.76
79703;BME280;69172;52.352;5.006;2023-07-28T12:24:44;100763.00;;;23.18;65.06
79703;BME280;69172;52.352;5.006;2023-07-28T12:27:10;100762.94;;;23.05;66.06
79703;BME280;69172;52.352;5.006;2023-07-28T12:29:36;100759.47;;;23.14;65.58
79703;BME280;69172;52.352;5.006;2023-07-28T12:32:02;100770.72;;;22.80;66.06
79703;BME280;69172;52.352;5.006;2023-07-28T12:34:27;100773.28;;;22.75;66.12
79703;BME280;69172;52.352;5.006;2023-07-28T12:36:52;100771.56;;;22.77;66.58
79703;BME280;69172;52.352;5.006;2023-07-28T12:39:18;100770.78;;;22.98;65.47
79703;BME280;69172;52.352;5.006;2023-07-28T12:41:44;100769.91;;;22.99;65.02
79703;BME280;69172;52.352;5.006;2023-07-28T12:44:10;100763.81;;;23.07;65.48
79703;BME280;69172;52.352;5.006;2023-07-28T12:46:35;100759.38;;;22.90;65.61
79703;BME280;69172;52.352;5.006;2023-07-28T12:49:04;100765.66;;;23.34;64.59
79703;BME280;69172;52.352;5.006;2023-07-28T12:51:32;100766.53;;;23.32;64.72
79703;BME280;69172;52.352;5.006;2023-07-28T12:53:57;100764.88;;;23.61;63.63
79703;BME280;69172;52.352;5.006;2023-07-28T12:56:25;100770.09;;;23.47;63.45
79703;BME280;69172;52.352;5.006;2023-07-28T12:58:50;100773.59;;;23.46;63.96
79703;BME280;69172;52.352;5.006;2023-07-28T13:01:16;100780.66;;;23.72;63.06
79703;BME280;69172;52.352;5.006;2023-07-28T13:03:41;100775.28;;;23.37;63.52
79703;BME280;69172;52.352;5.006;2023-07-28T13:06:07;100776.97;;;23.24;64.40
79703;BME280;69172;52.352;5.006;2023-07-28T13:08:32;100783.13;;;23.28;64.34
79703;BME280;69172;52.352;5.006;2023-07-28T13:10:57;100774.34;;;23.17;63.68